Time;durP1;ratioP1;P1;durP2;ratioP2;P2;SDS_P1;SDS_P2;PMS_P1;PMS_P2;Temp;Humidity;BMP_temperature;BMP_pressure;BME280_temperature;BME280_humidity;BME280_pressure;Samples;Min_cycle;Max_cycle;Signal;HPM_P1;HPM_P2
2024/04/11 00:02:22;;;;;;;10.18;1.83;;;;;;;16.35;41.01;102841.28;5304126;26;94828;-89
2024/04/11 00:04:47;;;;;;;6.20;1.70;;;;;;;16.35;40.90;102836.91;5296822;26;94903;-88
2024/04/11 00:07:13;;;;;;;7.30;2.13;;;;;;;16.34;41.03;102840.38;5305396;26;98451;-89
2024/04/11 00:09:39;;;;;;;5.57;1.90;;;;;;;16.36;40.99;102849.22;5331958;26;98748;-89
2024/04/11 00:12:04;;;;;;;8.10;1.83;;;;;;;16.36;41.10;102851.88;5293925;26;94967;-88
2024/04/11 00:14:30;;;;;;;8.75;1.88;;;;;;;16.37;40.93;102858.00;5299595;26;94929;-89
2024/04/11 00:16:56;;;;;;;7.20;2.08;;;;;;;16.38;40.92;102854.50;5359932;26;95496;-89
2024/04/11 00:19:21;;;;;;;9.65;1.70;;;;;;;16.38;41.05;102854.50;5302157;26;98232;-89
2024/04/11 00:21:48;;;;;;;5.97;2.00;;;;;;;16.39;40.73;102860.69;5335279;26;94935;-89
2024/04/11 00:24:14;;;;;;;7.07;1.60;;;;;;;16.38;41.02;102857.13;5332953;26;94913;-90
2024/04/11 00:26:41;;;;;;;9.85;2.40;;;;;;;16.38;40.90;102862.41;5301731;26;97527;-88
2024/04/11 00:29:10;;;;;;;4.93;2.00;;;;;;;16.38;41.07;102857.13;5302974;26;98904;-89
2024/04/11 00:31:36;;;;;;;;;;;;;;;16.36;40.87;102850.94;5302399;26;94803;-91
2024/04/11 00:34:23;;;;;;;11.68;1.92;;;;;;;16.41;40.92;102848.44;5307609;26;94935;-89
2024/04/11 00:36:53;;;;;;;9.02;2.33;;;;;;;16.39;40.99;102851.03;5330202;26;98477;-90
2024/04/11 00:39:20;;;;;;;5.50;1.60;;;;;;;16.37;41.12;102848.34;5334209;26;98418;-90
2024/04/11 00:41:50;;;;;;;6.72;1.60;;;;;;;16.36;41.18;102843.06;5296938;26;94933;-91
2024/04/11 00:44:17;;;;;;;7.25;1.60;;;;;;;16.36;41.25;102837.78;5337689;26;94899;-89
2024/04/11 00:46:47;;;;;;;9.70;2.45;;;;;;;16.36;41.16;102827.25;5328711;26;97409;-89
2024/04/11 00:49:16;;;;;;;4.88;1.23;;;;;;;16.39;41.04;102826.44;5325211;26;95347;-90
2024/04/11 00:51:42;;;;;;;5.50;2.05;;;;;;;16.40;41.16;102829.13;5325336;26;94938;-89
2024/04/11 00:54:09;;;;;;;8.20;1.55;;;;;;;16.40;41.16;102829.13;5322284;26;94911;-90
2024/04/11 00:56:35;;;;;;;6.32;1.70;;;;;;;16.41;41.47;102830.88;5304693;26;98258;-89
2024/04/11 00:59:02;;;;;;;8.18;1.98;;;;;;;16.43;41.21;102839.69;5319434;26;95492;-89
2024/04/11 01:01:30;;;;;;;7.28;2.00;;;;;;;16.42;41.26;102821.25;5335736;26;94805;-89
2024/04/11 01:04:00;;;;;;;6.35;2.35;;;;;;;16.42;41.03;102823.88;5330375;26;95149;-89
2024/04/11 01:06:26;;;;;;;7.75;1.90;;;;;;;16.41;41.42;102833.50;5356604;26;98778;-89
2024/04/11 01:08:51;;;;;;;7.35;2.03;;;;;;;16.41;41.56;102846.66;5304717;26;97856;-90
2024/04/11 01:11:17;;;;;;;7.75;2.08;;;;;;;16.43;41.61;102839.69;5324243;26;94800;-89
2024/04/11 01:13:48;;;;;;;4.05;1.52;;;;;;;16.44;41.38;102845.88;5304884;26;95105;-89
2024/04/11 01:16:14;;;;;;;5.35;2.05;;;;;;;16.44;41.43;102846.75;5303151;26;98485;-89
2024/04/11 01:18:39;;;;;;;10.07;2.63;;;;;;;16.43;41.50;102838.81;5353162;26;95863;-88
2024/04/11 01:21:05;;;;;;;11.05;2.00;;;;;;;16.42;41.47;102826.50;5295037;26;94930;-89
2024/04/11 01:23:30;;;;;;;9.07;2.17;;;;;;;16.42;41.64;102827.41;5321812;26;95010;-89
2024/04/11 01:25:56;;;;;;;6.72;2.13;;;;;;;16.42;41.51;102830.03;5313250;26;94783;-89
2024/04/11 01:28:21;;;;;;;7.47;1.60;;;;;;;16.42;41.79;102818.63;5302746;26;98349;-89
2024/04/11 01:30:46;;;;;;;6.88;2.40;;;;;;;16.42;41.48;102813.34;5302113;26;94897;-89
2024/04/11 01:33:14;;;;;;;5.47;1.88;;;;;;;16.43;41.65;102812.47;5329922;26;94932;-89
2024/04/11 01:35:40;;;;;;;7.53;1.80;;;;;;;16.45;41.46;102810.75;5298444;26;98318;-90
2024/04/11 01:38:05;;;;;;;8.73;1.75;;;;;;;16.47;41.63;102814.28;5333291;26;95566;-89
2024/04/11 01:40:36;;;;;;;5.00;2.00;;;;;;;16.46;41.48;102817.81;5303704;26;94936;-89
2024/04/11 01:43:02;;;;;;;5.78;1.33;;;;;;;16.47;41.56;102823.09;5293740;26;95430;-89
2024/04/11 01:45:27;;;;;;;7.57;2.28;;;;;;;16.49;41.55;102817.88;5329072;26;95825;-89
2024/04/11 01:47:53;;;;;;;9.27;1.38;;;;;;;16.51;41.61;102805.63;5296812;26;98615;-90
2024/04/11 01:50:20;;;;;;;7.75;2.33;;;;;;;16.50;41.67;102802.06;5327361;26;95357;-90
2024/04/11 01:52:45;;;;;;;14.25;1.85;;;;;;;16.52;41.45;102815.28;5328369;26;94905;-90
2024/04/11 01:55:11;;;;;;;6.53;1.50;;;;;;;16.52;41.66;102807.38;5332495;26;98706;-91
2024/04/11 01:57:37;;;;;;;6.78;2.22;;;;;;;16.52;41.56;102805.66;5302577;26;97307;-90
2024/04/11 02:00:15;;;;;;;6.60;2.40;;;;;;;16.53;41.71;102804.78;5327950;26;94853;-89
2024/04/11 02:02:43;;;;;;;9.02;2.60;;;;;;;16.54;41.55;102813.56;5303451;26;94978;-89
2024/04/11 02:05:10;;;;;;;7.32;1.83;;;;;;;16.52;41.70;102818.81;5330031;26;94976;-89
2024/04/11 02:07:37;;;;;;;7.53;1.73;;;;;;;16.52;41.78;102821.44;5331874;26;98261;-89
2024/04/11 02:10:05;;;;;;;8.00;1.60;;;;;;;16.52;41.89;102816.19;5320028;26;94801;-89
2024/04/11 02:12:31;;;;;;;7.35;2.40;;;;;;;16.52;41.91;102817.91;5327078;26;95025;-90
2024/04/11 02:14:56;;;;;;;7.03;1.65;;;;;;;16.51;41.85;102830.19;5331578;26;95845;-90
2024/04/11 02:17:21;;;;;;;6.03;1.52;;;;;;;16.50;41.87;102823.16;5333260;26;98103;-90
2024/04/11 02:19:47;;;;;;;9.10;1.83;;;;;;;16.51;41.94;102829.31;5321393;26;96070;-89
2024/04/11 02:22:15;;;;;;;7.25;2.10;;;;;;;16.52;42.19;102829.34;5322863;26;94800;-89
2024/04/11 02:24:41;;;;;;;8.32;2.17;;;;;;;16.54;42.05;102824.09;5300282;26;98749;-90
2024/04/11 02:27:08;;;;;;;6.78;1.50;;;;;;;16.55;42.12;102820.63;5297090;26;98684;-89
2024/04/11 02:29:33;;;;;;;14.25;2.58;;;;;;;16.54;42.12;102808.28;5321660;26;94908;-90
2024/04/11 02:31:59;;;;;;;8.93;2.20;;;;;;;16.53;42.17;102811.78;5331381;26;95045;-89
2024/04/11 02:34:28;;;;;;;9.00;2.15;;;;;;;16.52;42.31;102821.44;5327080;26;95937;-89
2024/04/11 02:36:54;;;;;;;5.10;1.30;;;;;;;16.52;42.15;102810.91;5324467;26;95790;-90
2024/04/11 02:39:20;;;;;;;9.15;1.52;;;;;;;16.52;42.47;102824.09;5332443;26;95445;-90
2024/04/11 02:41:46;;;;;;;5.28;1.98;;;;;;;16.52;42.29;102825.81;5300171;26;94958;-88
2024/04/11 02:44:11;;;;;;;8.00;1.83;;;;;;;16.53;42.49;102828.47;5336270;26;98546;-90
2024/04/11 02:46:39;;;;;;;6.43;2.00;;;;;;;16.54;42.42;102832.91;5328915;26;98212;-89
2024/04/11 02:49:05;;;;;;;9.02;1.80;;;;;;;16.53;42.43;102836.38;5306016;26;94827;-89
2024/04/11 02:51:31;;;;;;;7.57;2.03;;;;;;;16.53;42.70;102832.88;5327246;26;94995;-89
2024/04/11 02:53:57;;;;;;;8.65;1.73;;;;;;;16.53;42.79;102828.47;5295157;26;98575;-89
2024/04/11 02:56:26;;;;;;;9.00;1.52;;;;;;;16.54;42.85;102832.91;5332736;26;95896;-89
2024/04/11 02:58:55;;;;;;;6.90;2.33;;;;;;;16.54;43.02;102835.53;5304760;26;94876;-89
2024/04/11 03:01:21;;;;;;;8.05;2.25;;;;;;;16.55;43.05;102829.38;5294900;26;94999;-90
2024/04/11 03:03:47;;;;;;;7.45;2.00;;;;;;;16.56;42.78;102833.81;5307760;26;97727;-89
2024/04/11 03:06:20;;;;;;;6.82;1.52;;;;;;;16.55;43.16;102818.84;5334090;26;95826;-90
2024/04/11 03:08:50;;;;;;;7.35;2.38;;;;;;;16.55;43.44;102810.94;5330044;26;94862;-90
2024/04/11 03:11:15;;;;;;;6.80;1.83;;;;;;;16.55;43.52;102807.44;5330000;26;94828;-89
2024/04/11 03:13:41;;;;;;;9.50;2.05;;;;;;;16.56;43.55;102806.59;5318665;26;97439;-89
2024/04/11 03:16:10;;;;;;;7.40;1.30;;;;;;;16.55;43.80;102803.06;5321985;26;95815;-89
2024/04/11 03:18:36;;;;;;;7.55;1.80;;;;;;;16.56;43.82;102801.31;5330082;26;94977;-89
2024/04/11 03:21:01;;;;;;;8.98;1.48;;;;;;;16.56;44.19;102798.69;5331927;26;95345;-89
2024/04/11 03:23:28;;;;;;;9.30;2.20;;;;;;;16.57;44.24;102797.81;5335152;26;95904;-89
2024/04/11 03:25:54;;;;;;;5.28;1.90;;;;;;;16.58;44.33;102803.97;5332800;26;98431;-89
2024/04/11 03:28:20;;;;;;;9.52;2.10;;;;;;;16.59;44.35;102800.47;5288759;26;94949;-90
2024/04/11 03:31:04;;;;;;;11.05;2.42;;;;;;;16.57;44.47;102800.44;5304175;26;94949;-89
2024/04/11 03:33:30;;;;;;;8.00;1.65;;;;;;;16.59;44.59;102795.22;5299517;26;98286;-89
2024/04/11 03:36:00;;;;;;;7.93;1.92;;;;;;;16.61;44.83;102791.72;5300879;26;98500;-90
2024/04/11 03:38:31;;;;;;;8.77;2.00;;;;;;;16.64;44.93;102789.16;5289780;26;94829;-89
2024/04/11 03:41:13;;;;;;;6.68;2.00;;;;;;;16.64;44.97;102783.03;5336341;26;94986;-89
2024/04/11 03:43:39;;;;;;;;;;;;;;;16.62;44.37;102790.00;5326825;26;95565;-89
2024/04/11 03:46:21;;;;;;;6.38;1.98;;;;;;;16.66;44.85;102782.16;5306165;26;98471;-90
2024/04/11 03:48:55;;;;;;;6.88;2.25;;;;;;;16.66;44.91;102779.53;5329611;26;95176;-90
2024/04/11 03:51:22;;;;;;;7.13;1.70;;;;;;;16.66;45.14;102781.28;5290621;26;95071;-89
2024/04/11 03:53:59;;;;;;;7.00;1.50;;;;;;;16.64;45.07;102777.75;5356025;26;98947;-91
2024/04/11 03:56:27;;;;;;;7.95;2.00;;;;;;;16.63;45.26;102776.88;5331051;26;95605;-90
2024/04/11 03:58:56;;;;;;;13.25;1.92;;;;;;;16.63;45.28;102778.59;5334594;26;95007;-89
2024/04/11 04:01:22;;;;;;;5.93;2.13;;;;;;;16.62;45.43;102768.94;5303421;26;94986;-90
2024/04/11 04:03:52;;;;;;;10.68;2.05;;;;;;;16.64;45.93;102761.94;5317546;26;96010;-90
2024/04/11 04:06:17;;;;;;;5.78;2.17;;;;;;;16.65;45.88;102756.69;5331724;26;95859;-89
2024/04/11 04:08:45;;;;;;;10.30;2.03;;;;;;;16.67;46.00;102762.88;5304965;26;94871;-90
2024/04/11 04:11:11;;;;;;;6.88;1.85;;;;;;;16.67;45.95;102760.25;5334551;26;94916;-89
2024/04/11 04:13:38;;;;;;;10.25;2.03;;;;;;;16.68;45.88;102764.63;5296314;26;98629;-90
2024/04/11 04:16:11;;;;;;;7.25;2.40;;;;;;;16.66;46.04;102761.09;5329193;26;95644;-89
2024/04/11 04:18:37;;;;;;;8.18;1.80;;;;;;;16.68;46.30;102759.38;5321602;26;94835;-90
2024/04/11 04:21:04;;;;;;;6.45;2.25;;;;;;;16.70;46.27;102741.88;5328315;26;94996;-90
2024/04/11 04:23:30;;;;;;;9.52;2.20;;;;;;;16.70;46.12;102752.41;5320452;26;97563;-89
2024/04/11 04:25:59;;;;;;;10.52;2.75;;;;;;;16.71;46.46;102761.19;5294179;26;98633;-89
2024/04/11 04:28:30;;;;;;;6.65;2.20;;;;;;;16.70;46.52;102757.69;5298236;26;94784;-90
2024/04/11 04:31:18;;;;;;;10.35;2.03;;;;;;;16.68;46.49;102771.66;5312773;26;94922;-89
2024/04/11 04:33:53;;;;;;;9.15;2.40;;;;;;;16.71;46.64;102774.38;5329202;26;98364;-90
2024/04/11 04:36:25;;;;;;;6.88;1.90;;;;;;;16.71;46.78;102775.25;5329872;26;95582;-89
2024/04/11 04:38:53;;;;;;;10.73;2.45;;;;;;;16.73;46.64;102783.19;5303995;26;94945;-89
2024/04/11 04:41:20;;;;;;;7.95;2.10;;;;;;;16.71;46.92;102783.16;5302948;26;94977;-90
2024/04/11 04:43:53;;;;;;;8.55;2.60;;;;;;;16.68;47.10;102790.97;5330495;26;94992;-89
2024/04/11 04:46:20;;;;;;;6.07;1.73;;;;;;;16.69;47.10;102805.06;5307528;26;98451;-89
2024/04/11 04:48:46;;;;;;;7.10;1.85;;;;;;;16.67;47.00;102802.41;5333947;26;94915;-90
2024/04/11 04:51:12;;;;;;;6.70;1.60;;;;;;;16.66;46.96;102805.00;5305026;26;94984;-90
2024/04/11 04:53:38;;;;;;;10.45;2.80;;;;;;;16.66;47.12;102812.91;5329119;26;95866;-90
2024/04/11 04:56:05;;;;;;;8.98;2.45;;;;;;;16.64;47.23;102814.63;5335077;26;98503;-91
2024/04/11 04:58:30;;;;;;;8.00;1.95;;;;;;;16.63;47.25;102815.47;5288320;26;94918;-90
2024/04/11 05:00:57;;;;;;;9.48;2.22;;;;;;;16.63;47.52;102812.84;5335238;26;94884;-89
2024/04/11 05:03:24;;;;;;;4.53;1.55;;;;;;;16.64;47.31;102828.69;5322524;26;95331;-89
2024/04/11 05:05:50;;;;;;;6.28;2.22;;;;;;;16.63;47.10;102820.75;5319324;26;97595;-87
2024/04/11 05:08:23;;;;;;;8.75;3.20;;;;;;;16.62;47.48;102821.63;5328903;26;94936;-85
2024/04/11 05:10:55;;;;;;;11.05;3.30;;;;;;;16.59;47.85;102827.72;5330574;26;94972;-84
2024/04/11 05:13:29;;;;;;;6.80;2.53;;;;;;;16.59;47.77;102834.72;5284939;26;98731;-85
2024/04/11 05:16:06;;;;;;;10.05;2.88;;;;;;;16.55;48.04;102834.66;5326758;26;95536;-85
2024/04/11 05:18:38;;;;;;;7.72;3.10;;;;;;;16.53;48.26;102838.13;5329327;26;95093;-85
2024/04/11 05:21:08;;;;;;;7.68;3.72;;;;;;;16.46;48.45;102842.38;5300894;26;95585;-85
2024/04/11 05:23:34;;;;;;;8.73;3.35;;;;;;;16.44;48.63;102841.47;5301230;26;97792;-85
2024/04/11 05:26:07;;;;;;;11.05;3.90;;;;;;;16.41;48.90;102846.66;5300703;26;94907;-85
2024/04/11 05:28:35;;;;;;;11.63;4.03;;;;;;;16.38;49.00;102841.34;5327159;26;95431;-84
2024/04/11 05:31:04;;;;;;;11.70;3.65;;;;;;;16.35;49.27;102844.81;5315585;26;95095;-86
2024/04/11 05:33:37;;;;;;;13.02;4.05;;;;;;;16.32;49.34;102851.75;5297440;26;97760;-86
2024/04/11 05:36:12;;;;;;;9.57;3.22;;;;;;;16.31;49.58;102847.34;5294007;26;95899;-85
2024/04/11 05:38:41;;;;;;;11.73;3.35;;;;;;;16.30;49.61;102851.72;5330919;26;94922;-86
2024/04/11 05:41:09;;;;;;;8.50;4.25;;;;;;;16.28;49.87;102849.94;5291647;26;95079;-86
2024/04/11 05:43:47;;;;;;;7.28;3.10;;;;;;;16.28;50.10;102852.56;5329518;26;97673;-85
2024/04/11 05:46:13;;;;;;;10.75;3.45;;;;;;;16.26;50.10;102854.28;5329181;26;94785;-86
2024/04/11 05:48:42;;;;;;;12.95;3.20;;;;;;;16.23;50.33;102862.97;5329538;26;94983;-89
2024/04/11 05:51:10;;;;;;;11.10;4.38;;;;;;;16.24;50.35;102858.59;5301412;26;94873;-87
2024/04/11 05:53:36;;;;;;;8.43;3.35;;;;;;;16.21;50.67;102859.44;5321778;26;96985;-86
2024/04/11 05:56:06;;;;;;;8.75;3.83;;;;;;;16.19;50.62;102861.16;5319207;26;95881;-86
2024/04/11 05:58:32;;;;;;;10.65;3.50;;;;;;;16.17;50.86;102855.84;5300047;26;94950;-86
2024/04/11 06:01:01;;;;;;;9.23;3.80;;;;;;;16.17;50.94;102862.88;5296173;26;95197;-87
2024/04/11 06:03:29;;;;;;;8.98;3.70;;;;;;;16.17;51.23;102863.75;5331655;26;95918;-87
2024/04/11 06:05:56;;;;;;;10.65;3.17;;;;;;;16.18;51.22;102868.16;5303007;26;97926;-87
2024/04/11 06:08:22;;;;;;;9.13;3.80;;;;;;;16.19;51.38;102871.69;5332705;26;94887;-87
2024/04/11 06:10:50;;;;;;;7.55;3.20;;;;;;;16.18;51.32;102870.81;5331506;26;95004;-87
2024/04/11 06:13:19;;;;;;;8.00;3.47;;;;;;;16.20;51.50;102872.56;5332005;26;95659;-86
2024/04/11 06:15:47;;;;;;;11.75;4.00;;;;;;;16.19;51.86;102874.31;5303076;26;97878;-86
2024/04/11 06:18:15;;;;;;;10.65;3.70;;;;;;;16.18;51.84;102877.78;5331805;26;94982;-86
2024/04/11 06:20:46;;;;;;;12.18;3.47;;;;;;;16.15;52.32;102873.34;5304495;26;95057;-85
2024/04/11 06:23:19;;;;;;;9.52;4.53;;;;;;;16.15;52.14;102876.00;5303636;26;97866;-86
2024/04/11 06:25:46;;;;;;;13.02;4.10;;;;;;;16.14;52.25;102882.09;5332587;26;98699;-86
2024/04/11 06:28:14;;;;;;;9.57;3.85;;;;;;;16.12;52.44;102880.31;5334080;26;94972;-86
2024/04/11 06:30:45;;;;;;;13.23;4.95;;;;;;;16.08;52.82;102871.44;5335116;26;95029;-85
2024/04/11 06:33:13;;;;;;;15.27;4.05;;;;;;;16.08;52.96;102884.59;5287686;26;96096;-86
2024/04/11 06:35:38;;;;;;;10.95;4.15;;;;;;;16.06;53.18;102888.97;5331780;26;98582;-86
2024/04/11 06:38:05;;;;;;;10.07;3.70;;;;;;;16.04;53.29;102887.13;5295986;26;94910;-87
2024/04/11 06:40:33;;;;;;;11.73;4.43;;;;;;;16.03;53.29;102883.63;5335677;26;94931;-87
2024/04/11 06:42:59;;;;;;;9.73;4.60;;;;;;;16.06;53.71;102894.22;5304498;26;98640;-87
2024/04/11 06:45:26;;;;;;;12.82;4.43;;;;;;;16.06;53.50;102896.84;5332531;26;95585;-88
2024/04/11 06:47:54;;;;;;;12.07;4.93;;;;;;;16.05;53.79;102904.72;5302809;26;94953;-86
2024/04/11 06:50:20;;;;;;;10.57;4.45;;;;;;;16.04;54.10;102914.34;5306055;26;95186;-86
2024/04/11 06:52:45;;;;;;;14.82;5.07;;;;;;;16.03;54.11;102911.69;5331278;26;95564;-85
2024/04/11 06:55:14;;;;;;;10.02;4.43;;;;;;;16.03;54.09;102924.84;5305923;26;98736;-87
2024/04/11 06:57:44;;;;;;;11.43;4.10;;;;;;;16.02;54.26;102923.94;5321909;26;94854;-88
2024/04/11 07:00:35;;;;;;;10.98;5.53;;;;;;;16.03;54.42;102930.13;5327826;26;95002;-88
2024/04/11 07:03:13;;;;;;;12.60;5.18;;;;;;;16.02;54.36;102923.94;5328655;26;98688;-87
2024/04/11 07:05:49;;;;;;;9.98;5.28;;;;;;;16.03;54.66;102935.38;5307602;26;97817;-88
2024/04/11 07:08:14;;;;;;;11.55;4.60;;;;;;;16.04;54.66;102930.13;5309885;26;94926;-87
2024/04/11 07:10:46;;;;;;;10.52;4.80;;;;;;;16.07;54.64;102924.94;5309290;26;94879;-89
2024/04/11 07:13:12;;;;;;;8.13;4.97;;;;;;;16.11;54.75;102926.81;5309400;26;98682;-88
2024/04/11 07:15:42;;;;;;;10.65;4.47;;;;;;;16.15;55.02;102919.88;5336228;26;95962;-88
2024/04/11 07:18:14;;;;;;;11.93;4.75;;;;;;;16.16;54.93;102933.03;5337932;26;94734;-88
2024/04/11 07:20:46;;;;;;;13.80;5.00;;;;;;;16.18;54.86;102946.25;5321077;26;94942;-88
2024/04/11 07:23:15;;;;;;;9.40;4.53;;;;;;;16.18;54.83;102948.88;5309496;26;98508;-87
2024/04/11 07:25:40;;;;;;;11.20;4.45;;;;;;;16.20;55.01;102955.06;5333937;26;95882;-88
2024/04/11 07:28:07;;;;;;;11.13;4.95;;;;;;;16.21;55.14;102958.59;5300703;26;95093;-88
2024/04/11 07:30:35;;;;;;;16.17;6.00;;;;;;;16.22;55.28;102949.84;5304649;26;94900;-89
2024/04/11 07:33:02;;;;;;;11.30;5.25;;;;;;;16.23;55.11;102954.25;5303599;26;95963;-87
2024/04/11 07:35:30;;;;;;;10.90;5.63;;;;;;;16.27;55.31;102959.63;5306271;26;97767;-88
2024/04/11 07:37:58;;;;;;;12.95;4.65;;;;;;;16.27;55.42;102964.00;5301303;26;94982;-87
2024/04/11 07:40:33;;;;;;;13.70;5.50;;;;;;;16.27;55.28;102971.91;5321056;26;94875;-86
2024/04/11 07:43:08;;;;;;;9.93;4.95;;;;;;;16.25;55.07;102970.97;5329974;26;95690;-88
2024/04/11 07:45:37;;;;;;;10.88;5.40;;;;;;;16.25;55.51;102974.50;5336985;26;95976;-88
2024/04/11 07:48:08;;;;;;;11.63;5.28;;;;;;;16.25;55.55;102976.25;5337331;26;94857;-88
2024/04/11 07:50:37;;;;;;;14.15;6.38;;;;;;;16.26;55.57;102972.78;5331220;26;98558;-88
2024/04/11 07:53:07;;;;;;;14.13;6.00;;;;;;;16.25;55.39;102978.88;5306534;26;98307;-88
2024/04/11 07:55:36;;;;;;;13.48;5.65;;;;;;;16.24;55.89;102985.00;5336833;26;95582;-89
2024/04/11 07:58:05;;;;;;;13.60;6.60;;;;;;;16.26;55.74;102991.19;5324527;26;94778;-87
2024/04/11 08:00:39;;;;;;;;;;;;;;;16.25;55.17;102984.16;5338630;26;94940;-87
2024/04/11 08:03:08;;;;;;;12.80;6.47;;;;;;;16.29;55.66;102991.25;5333449;26;98304;-88
2024/04/11 08:05:34;;;;;;;14.77;6.35;;;;;;;16.30;55.84;102986.03;5325972;26;98387;-88
2024/04/11 08:08:00;;;;;;;11.75;5.95;;;;;;;16.31;55.79;102981.63;5328325;26;94897;-87
2024/04/11 08:10:28;;;;;;;14.68;6.65;;;;;;;16.29;56.08;102996.50;5333475;26;94885;-88
2024/04/11 08:12:54;;;;;;;14.77;6.82;;;;;;;16.30;56.30;102995.69;5295627;26;97131;-88
2024/04/11 08:15:20;;;;;;;14.55;6.60;;;;;;;16.31;56.45;103008.88;5337123;26;98599;-88
2024/04/11 08:17:47;;;;;;;14.23;5.75;;;;;;;16.32;56.50;103001.88;5308433;26;94842;-89
2024/04/11 08:20:13;;;;;;;17.35;6.93;;;;;;;16.35;56.63;103007.22;5320630;26;94865;-88
2024/04/11 08:22:42;;;;;;;15.13;6.05;;;;;;;16.36;56.83;103007.25;5306024;26;98241;-90
2024/04/11 08:25:12;;;;;;;15.10;6.40;;;;;;;16.37;56.75;103006.38;5336003;26;98680;-89
2024/04/11 08:27:44;;;;;;;12.93;6.57;;;;;;;16.39;56.68;103005.53;5308091;26;94866;-89
2024/04/11 08:30:11;;;;;;;12.73;6.70;;;;;;;16.42;56.77;103014.41;5299669;26;95005;-89
2024/04/11 08:32:38;;;;;;;15.07;7.60;;;;;;;16.46;56.91;103020.63;5308875;26;98603;-90
2024/04/11 08:35:06;;;;;;;13.95;8.00;;;;;;;16.47;57.00;103012.75;5368100;26;97505;-90
2024/04/11 08:37:33;;;;;;;17.40;6.80;;;;;;;16.50;56.96;103020.72;5338605;26;94860;-91
2024/04/11 08:39:59;;;;;;;13.63;7.72;;;;;;;16.50;56.91;103012.81;5337505;26;94932;-89
2024/04/11 08:42:28;;;;;;;17.27;8.10;;;;;;;16.52;57.07;103024.28;5327680;26;95640;-90
2024/04/11 08:44:57;;;;;;;19.02;8.20;;;;;;;16.52;57.26;103023.38;5308042;26;98407;-90
2024/04/11 08:47:24;;;;;;;18.33;8.75;;;;;;;16.54;57.27;103025.22;5298465;26;94849;-90
2024/04/11 08:49:50;;;;;;;17.27;8.27;;;;;;;16.54;57.29;103025.22;5338489;26;95041;-90
2024/04/11 08:52:19;;;;;;;15.88;7.72;;;;;;;16.55;57.45;103015.56;5297340;26;98524;-89
2024/04/11 08:54:46;;;;;;;15.43;7.18;;;;;;;16.59;57.49;103019.16;5336365;26;95878;-90
2024/04/11 08:57:12;;;;;;;17.58;8.23;;;;;;;16.61;57.76;103022.69;5308553;26;94823;-90
2024/04/11 08:59:38;;;;;;;15.93;8.38;;;;;;;16.64;57.81;103039.47;5310149;26;95028;-90
2024/04/11 09:02:06;;;;;;;17.20;7.72;;;;;;;16.65;57.73;103040.34;5327679;26;97807;-89
2024/04/11 09:04:32;;;;;;;16.13;6.80;;;;;;;16.62;57.76;103049.09;5318768;26;95796;-89
2024/04/11 09:06:58;;;;;;;17.77;7.45;;;;;;;16.61;57.92;103047.28;5332307;26;94813;-91
2024/04/11 09:09:24;;;;;;;17.63;8.27;;;;;;;16.63;58.00;103047.34;5301139;26;95096;-90
2024/04/11 09:11:53;;;;;;;19.05;7.85;;;;;;;16.61;58.15;103052.56;5284050;26;98815;-90
2024/04/11 09:14:19;;;;;;;20.15;8.70;;;;;;;16.62;57.93;103061.38;5331653;26;95601;-90
2024/04/11 09:16:44;;;;;;;15.82;7.45;;;;;;;16.61;58.07;103062.22;5337810;26;94837;-90
2024/04/11 09:19:10;;;;;;;16.90;8.48;;;;;;;16.59;58.38;103067.44;5301436;26;95040;-90
2024/04/11 09:21:46;;;;;;;13.82;7.43;;;;;;;16.56;58.67;103056.88;5301336;26;95574;-86
2024/04/11 09:24:16;;;;;;;;;;;;;;;16.55;57.73;103058.59;5309393;26;98590;-88
2024/04/11 09:26:43;;;;;;;15.68;7.88;;;;;;;16.62;58.26;103059.63;5337277;26;95292;-88
2024/04/11 09:29:11;;;;;;;15.65;7.05;;;;;;;16.62;58.71;103062.25;5294792;26;94857;-89
2024/04/11 09:31:40;;;;;;;15.77;8.18;;;;;;;16.63;59.07;103065.78;5337367;26;97605;-89
2024/04/11 09:34:13;;;;;;;17.00;8.48;;;;;;;16.68;59.22;103062.38;5335084;26;95881;-89
2024/04/11 09:36:47;;;;;;;17.80;8.75;;;;;;;16.71;59.20;103073.00;5335710;26;94853;-89
2024/04/11 09:39:41;;;;;;;16.02;9.38;;;;;;;16.73;59.21;103071.28;5308414;26;95063;-90
2024/04/11 09:42:07;;;;;;;16.60;9.20;;;;;;;16.75;59.09;103071.34;5331861;26;95724;-89
2024/04/11 09:44:39;;;;;;;15.82;7.85;;;;;;;16.76;59.37;103073.13;5289975;26;98725;-89
2024/04/11 09:47:09;;;;;;;16.95;8.45;;;;;;;16.78;59.55;103078.44;5331636;26;94945;-90
2024/04/11 09:49:37;;;;;;;19.27;9.10;;;;;;;16.81;59.74;103082.03;5336105;26;95039;-90
2024/04/11 09:52:07;;;;;;;18.48;8.95;;;;;;;16.83;59.56;103085.63;5336002;26;96447;-89
2024/04/11 09:54:38;;;;;;;18.05;8.55;;;;;;;16.86;59.47;103090.97;5336568;26;94853;-90
2024/04/11 09:57:05;;;;;;;18.33;8.77;;;;;;;16.90;59.86;103094.56;5293931;26;94885;-89
2024/04/11 09:59:32;;;;;;;18.75;8.98;;;;;;;16.91;59.93;103097.19;5301352;26;94850;-89
2024/04/11 10:02:01;;;;;;;19.20;8.82;;;;;;;16.94;59.71;103107.81;5313482;26;95803;-89
2024/04/11 10:04:42;;;;;;;;;;;;;;;16.94;59.02;103105.19;5322179;26;98650;-89
2024/04/11 10:07:08;;;;;;;;;;;;;;;16.98;58.77;103097.34;5305762;26;94857;-89
2024/04/11 10:09:35;;;;;;;16.65;9.60;;;;;;;17.02;59.19;103100.09;5335437;26;94861;-88
2024/04/11 10:12:04;;;;;;;18.83;10.00;;;;;;;17.02;59.58;103105.38;5341717;26;98759;-89
2024/04/11 10:14:35;;;;;;;19.73;9.00;;;;;;;17.04;59.82;103106.28;5310047;26;98885;-88
2024/04/11 10:17:42;;;;;;;;;;;;;;;;;;;;;
2024/04/11 10:21:02;;;;;;;20.63;9.75;;;;;;;17.04;59.98;103105.38;5328191;26;95032;-87
2024/04/11 10:23:37;;;;;;;16.48;9.10;;;;;;;17.08;60.15;103104.63;5301369;26;98854;-86
2024/04/11 10:26:14;;;;;;;21.10;9.35;;;;;;;17.11;60.34;103109.94;5332015;26;97986;-87
2024/04/11 10:28:51;;;;;;;20.35;9.60;;;;;;;17.17;60.53;103114.47;5295091;26;94852;-86
2024/04/11 10:31:25;;;;;;;16.98;8.88;;;;;;;17.21;60.40;103105.75;5331995;26;94913;-87
2024/04/11 10:33:59;;;;;;;19.75;10.50;;;;;;;17.25;60.53;103115.50;5318412;26;98552;-87
2024/04/11 10:36:32;;;;;;;19.83;9.23;;;;;;;17.30;60.68;103117.38;5309401;26;98655;-88
2024/04/11 10:39:07;;;;;;;20.30;10.10;;;;;;;17.33;60.52;103119.22;5309071;26;94864;-87
2024/04/11 10:41:33;;;;;;;20.15;9.85;;;;;;;17.33;60.56;103118.31;5333994;26;94878;-87
2024/04/11 10:44:02;;;;;;;21.85;10.48;;;;;;;17.34;60.46;103135.91;5318575;26;95592;-89
2024/04/11 10:46:30;;;;;;;21.00;10.40;;;;;;;17.32;60.52;103135.88;5334591;26;95953;-88
2024/04/11 10:49:12;;;;;;;20.73;10.75;;;;;;;17.33;60.80;103121.84;5301799;26;95037;-87
2024/04/11 10:51:41;;;;;;;20.13;9.25;;;;;;;17.36;61.00;103127.19;5323881;26;95029;-87
2024/04/11 10:54:10;;;;;;;20.13;9.25;;;;;;;17.41;60.68;103119.34;5334159;26;98112;-87
2024/04/11 10:56:41;;;;;;;15.93;9.48;;;;;;;17.42;60.70;103131.69;5306771;26;98721;-87
2024/04/11 10:59:26;;;;;;;21.00;10.55;;;;;;;17.42;60.92;103129.94;5302437;26;94878;-87
2024/04/11 11:02:07;;;;;;;18.80;10.05;;;;;;;17.42;60.96;103135.22;5283397;26;95180;-87
2024/04/11 11:04:34;;;;;;;20.88;10.23;;;;;;;17.46;60.99;103142.31;5333778;26;94852;-88
2024/04/11 11:07:09;;;;;;;19.60;9.27;;;;;;;17.45;60.98;103139.66;5327024;26;95805;-86
2024/04/11 11:09:42;;;;;;;18.50;9.05;;;;;;;17.47;61.12;103144.13;5297642;26;94871;-87
2024/04/11 11:12:11;;;;;;;18.92;9.43;;;;;;;17.50;61.22;103148.56;5330550;26;95271;-87
2024/04/11 11:14:37;;;;;;;22.27;10.65;;;;;;;17.52;61.06;103152.09;5336494;26;95799;-87
2024/04/11 11:17:02;;;;;;;17.35;9.07;;;;;;;17.51;61.27;103153.88;5331900;26;95847;-87
2024/04/11 11:19:34;;;;;;;17.40;8.70;;;;;;;17.53;61.13;103153.91;5318851;26;94827;-87
2024/04/11 11:22:00;;;;;;;19.23;9.52;;;;;;;17.54;61.04;103145.16;5307438;26;95082;-87
2024/04/11 11:24:30;;;;;;;16.42;9.43;;;;;;;17.56;61.37;103146.06;5306166;26;97910;-86
2024/04/11 11:26:56;;;;;;;17.88;8.25;;;;;;;17.59;61.14;103145.22;5326734;26;95566;-87
2024/04/11 11:29:27;;;;;;;18.25;9.32;;;;;;;17.58;61.20;103157.53;5321905;26;94942;-87
2024/04/11 11:32:02;;;;;;;19.70;8.77;;;;;;;17.60;61.44;103149.66;5336654;26;95096;-85
2024/04/11 11:34:42;;;;;;;16.60;9.43;;;;;;;17.63;61.31;103141.78;5335446;26;95958;-87